createdAt,value
2019-02-20T00:00:26.153Z,53.00
2019-02-20T00:02:57.799Z,53.00
2019-02-20T00:05:27.868Z,52.90
2019-02-20T00:07:57.915Z,52.90
2019-02-20T00:10:28.116Z,52.90
2019-02-20T00:12:58.072Z,52.90
2019-02-20T00:15:28.251Z,52.90
2019-02-20T00:17:58.415Z,52.90
2019-02-20T00:20:28.668Z,52.90
2019-02-20T00:22:58.848Z,52.90
2019-02-20T00:25:29.015Z,52.90
2019-02-20T00:27:59.164Z,52.90
2019-02-20T00:30:29.362Z,52.80
2019-02-20T00:32:59.552Z,52.90
2019-02-20T00:35:29.699Z,52.90
2019-02-20T00:37:59.922Z,52.90
2019-02-20T00:40:29.984Z,52.90
2019-02-20T00:43:00.072Z,52.90
2019-02-20T00:45:48.814Z,52.90
2019-02-20T00:48:28.883Z,52.90
2019-02-20T00:51:08.415Z,52.80
2019-02-20T00:53:44.432Z,52.90
2019-02-20T00:56:14.723Z,52.90
2019-02-20T00:58:44.912Z,52.90
2019-02-20T01:01:15.065Z,52.80
2019-02-20T01:03:45.237Z,52.80
2019-02-20T01:06:15.328Z,52.90
2019-02-20T01:08:45.533Z,52.80
2019-02-20T01:11:15.706Z,52.80
2019-02-20T01:13:45.863Z,52.80
2019-02-20T01:16:16.072Z,52.80
2019-02-20T01:18:46.264Z,52.80
2019-02-20T01:21:16.555Z,52.70
2019-02-20T01:23:46.815Z,52.60
2019-02-20T01:26:16.953Z,52.70
2019-02-20T01:28:47.125Z,52.60
2019-02-20T01:31:17.336Z,52.60
2019-02-20T01:33:47.391Z,52.60
2019-02-20T01:36:17.591Z,52.60
2019-02-20T01:38:47.925Z,52.60
2019-02-20T01:41:18.104Z,52.70
2019-02-20T01:43:48.247Z,52.60
2019-02-20T01:46:18.339Z,52.50
2019-02-20T01:48:48.462Z,52.50
2019-02-20T01:51:18.636Z,52.50
2019-02-20T01:53:48.781Z,52.40
2019-02-20T01:56:19.032Z,52.30
2019-02-20T01:58:49.255Z,52.30
2019-02-20T02:01:19.432Z,52.40
2019-02-20T02:03:49.443Z,52.30
2019-02-20T02:06:19.751Z,52.30
2019-02-20T02:08:49.999Z,52.30
2019-02-20T02:11:20.331Z,52.30
2019-02-20T02:13:50.351Z,52.10
2019-02-20T02:16:20.576Z,52.30
2019-02-20T02:18:50.814Z,52.30
2019-02-20T02:21:21.054Z,52.20
2019-02-20T02:23:51.256Z,52.00
2019-02-20T02:26:21.479Z,52.10
2019-02-20T02:28:51.757Z,52.20
2019-02-20T02:31:21.894Z,52.20
2019-02-20T02:33:51.987Z,52.30
2019-02-20T02:36:22.162Z,52.10
2019-02-20T02:38:52.329Z,52.10
2019-02-20T02:41:22.596Z,52.10
2019-02-20T02:43:52.816Z,52.10
2019-02-20T02:46:22.947Z,52.10
2019-02-20T02:48:53.113Z,52.10
2019-02-20T02:51:23.361Z,52.20
2019-02-20T02:53:53.616Z,52.10
2019-02-20T02:56:23.807Z,52.10
2019-02-20T02:58:54.039Z,52.10
2019-02-20T03:01:24.191Z,52.10
2019-02-20T03:03:54.316Z,52.00
2019-02-20T03:06:24.515Z,52.10
2019-02-20T03:08:54.641Z,52.10
2019-02-20T03:11:24.841Z,52.10
2019-02-20T03:13:54.950Z,52.00
2019-02-20T03:16:25.152Z,52.10
2019-02-20T03:18:55.383Z,52.00
2019-02-20T03:21:25.627Z,51.70
2019-02-20T03:23:55.907Z,52.10
2019-02-20T03:26:27.609Z,52.00
2019-02-20T03:28:57.816Z,52.00
2019-02-20T03:31:28.067Z,52.00
2019-02-20T03:33:59.329Z,52.00
2019-02-20T03:36:29.524Z,51.90
2019-02-20T03:38:59.654Z,52.00
2019-02-20T03:41:30.713Z,51.80
2019-02-20T03:44:01.010Z,51.90
2019-02-20T03:46:31.137Z,52.10
2019-02-20T03:49:01.860Z,52.00
2019-02-20T03:51:32.132Z,52.00
2019-02-20T03:54:02.237Z,52.00
2019-02-20T03:56:33.571Z,52.00
2019-02-20T03:59:03.703Z,52.10
2019-02-20T04:01:33.918Z,52.00
2019-02-20T04:04:04.133Z,52.00
2019-02-20T04:06:34.146Z,52.00
2019-02-20T04:09:05.481Z,52.00
2019-02-20T04:11:36.726Z,52.00
2019-02-20T04:14:06.892Z,52.00
2019-02-20T04:16:37.155Z,52.00
2019-02-20T04:19:07.229Z,52.00
2019-02-20T04:21:37.397Z,51.90
2019-02-20T04:24:07.552Z,51.90
2019-02-20T04:26:39.068Z,51.90
2019-02-20T04:29:09.269Z,51.90
2019-02-20T04:31:39.496Z,51.80
2019-02-20T04:34:09.763Z,51.70
2019-02-20T04:36:39.751Z,51.60
2019-02-20T04:39:10.084Z,51.40
2019-02-20T04:41:40.191Z,51.40
2019-02-20T04:44:11.379Z,51.20
2019-02-20T04:46:41.638Z,51.00
2019-02-20T04:49:11.815Z,50.80
2019-02-20T04:51:42.119Z,50.80
2019-02-20T04:54:13.737Z,50.80
2019-02-20T04:56:44.189Z,50.90
2019-02-20T04:59:14.553Z,50.80
2019-02-20T05:01:44.918Z,50.80
2019-02-20T05:04:15.105Z,50.80
2019-02-20T05:06:45.252Z,50.80
2019-02-20T05:09:15.456Z,50.70
2019-02-20T05:11:45.609Z,50.80
2019-02-20T05:14:15.888Z,50.70
2019-02-20T05:16:46.141Z,50.70
2019-02-20T05:19:16.369Z,50.70
2019-02-20T05:21:46.423Z,50.70
2019-02-20T05:24:24.052Z,50.80
2019-02-20T05:26:48.503Z,50.70
2019-02-20T05:29:18.732Z,50.60
2019-02-20T05:31:48.861Z,50.40
2019-02-20T05:34:19.056Z,50.20
2019-02-20T05:36:49.289Z,50.00
2019-02-20T05:39:19.609Z,49.90
2019-02-20T05:41:49.640Z,49.90
2019-02-20T05:44:19.806Z,49.90
2019-02-20T05:46:50.125Z,49.80
2019-02-20T05:49:20.507Z,49.80
2019-02-20T05:51:51.567Z,49.90
2019-02-20T05:54:21.813Z,49.90
2019-02-20T05:56:52.150Z,50.00
2019-02-20T05:59:22.568Z,49.80
2019-02-20T06:01:52.756Z,49.90
2019-02-20T06:04:22.973Z,50.00
2019-02-20T06:06:53.036Z,50.30
2019-02-20T06:09:24.724Z,50.50
2019-02-20T06:11:54.944Z,50.80
2019-02-20T06:14:25.037Z,50.90
2019-02-20T06:16:55.131Z,51.00
2019-02-20T06:19:26.302Z,51.10
2019-02-20T06:21:56.516Z,51.00
2019-02-20T06:24:26.589Z,51.00
2019-02-20T06:26:56.644Z,51.00
2019-02-20T06:29:26.715Z,51.00
2019-02-20T06:31:56.848Z,51.10
2019-02-20T06:34:27.013Z,51.10
2019-02-20T06:36:57.213Z,51.30
2019-02-20T06:39:27.560Z,51.30
2019-02-20T06:41:57.760Z,51.20
2019-02-20T06:44:27.873Z,51.40
2019-02-20T06:46:58.194Z,51.40
2019-02-20T06:49:28.308Z,51.60
2019-02-20T06:51:58.525Z,51.50
2019-02-20T06:54:28.731Z,51.70
2019-02-20T06:56:58.977Z,51.60
2019-02-20T06:59:29.135Z,51.70
2019-02-20T07:01:59.445Z,51.80
2019-02-20T07:04:30.093Z,50.70
2019-02-20T07:07:22.360Z,51.50
2019-02-20T07:10:20.289Z,52.20
2019-02-20T07:13:23.472Z,52.30
2019-02-20T07:16:20.158Z,51.90
2019-02-20T07:19:07.158Z,51.50
2019-02-20T07:22:20.907Z,52.10
2019-02-20T07:25:21.008Z,52.10
2019-02-20T07:28:41.436Z,52.70
2019-02-20T07:31:11.535Z,52.10
2019-02-20T07:33:41.672Z,53.10
2019-02-20T07:36:11.716Z,52.60
2019-02-20T07:38:42.016Z,52.60
2019-02-20T07:41:12.216Z,52.90
2019-02-20T07:43:42.352Z,53.10
2019-02-20T07:46:12.376Z,53.00
2019-02-20T07:48:42.616Z,53.00
2019-02-20T07:51:14.864Z,53.20
2019-02-20T07:53:44.924Z,52.60
2019-02-20T07:56:14.979Z,53.10
2019-02-20T07:58:45.256Z,52.50
2019-02-20T08:01:15.587Z,53.30
2019-02-20T08:03:45.884Z,53.50
2019-02-20T08:06:15.888Z,53.00
2019-02-20T08:08:45.997Z,52.90
2019-02-20T08:11:16.140Z,52.90
2019-02-20T08:13:46.311Z,52.80
2019-02-20T08:16:16.555Z,52.60
2019-02-20T08:18:46.808Z,52.50
2019-02-20T08:21:17.027Z,52.10
2019-02-20T08:23:47.108Z,51.90
2019-02-20T08:26:17.324Z,51.80
2019-02-20T08:28:47.631Z,52.00
2019-02-20T08:31:17.880Z,51.60
2019-02-20T08:33:48.105Z,52.20
2019-02-20T08:36:18.243Z,51.80
2019-02-20T08:38:48.504Z,52.40
2019-02-20T08:41:18.680Z,52.60
2019-02-20T08:43:48.889Z,52.70
2019-02-20T08:46:18.960Z,52.60
2019-02-20T08:48:49.022Z,52.10
2019-02-20T08:51:19.161Z,51.50
2019-02-20T08:53:49.311Z,51.50
2019-02-20T08:56:19.567Z,52.30
2019-02-20T08:58:49.976Z,53.10
2019-02-20T09:01:20.384Z,51.80
2019-02-20T09:03:50.502Z,51.90
2019-02-20T09:06:20.563Z,52.40
2019-02-20T09:08:50.656Z,52.70
2019-02-20T09:11:20.664Z,53.20
2019-02-20T09:13:50.868Z,52.20
2019-02-20T09:16:21.102Z,53.50
2019-02-20T09:18:51.222Z,51.80
2019-02-20T09:21:21.312Z,51.50
2019-02-20T09:23:51.400Z,51.70
2019-02-20T09:26:23.134Z,52.10
2019-02-20T09:28:53.278Z,52.00
2019-02-20T09:31:23.476Z,51.40
2019-02-20T09:33:53.672Z,52.10
2019-02-20T09:36:23.861Z,51.60
2019-02-20T09:38:54.111Z,51.80
2019-02-20T09:41:24.193Z,51.80
2019-02-20T09:43:54.437Z,51.30
2019-02-20T09:46:24.476Z,51.00
2019-02-20T09:48:54.583Z,51.00
2019-02-20T09:51:24.759Z,51.20
2019-02-20T09:53:55.003Z,51.10
2019-02-20T09:56:25.101Z,50.60
2019-02-20T09:58:55.151Z,49.80
2019-02-20T10:01:25.304Z,49.70
2019-02-20T10:03:55.515Z,50.10
2019-02-20T10:06:25.589Z,49.30
2019-02-20T10:08:55.838Z,49.50
2019-02-20T10:11:25.955Z,50.00
2019-02-20T10:13:56.111Z,49.60
2019-02-20T10:16:26.749Z,49.70
2019-02-20T10:18:57.149Z,49.50
2019-02-20T10:21:27.388Z,49.20
2019-02-20T10:23:58.526Z,49.50
2019-02-20T10:26:28.629Z,49.30
2019-02-20T10:28:58.668Z,49.50
2019-02-20T10:31:28.969Z,49.20
2019-02-20T10:33:59.287Z,49.20
2019-02-20T10:36:29.450Z,49.80
2019-02-20T10:38:59.670Z,49.60
2019-02-20T10:41:29.845Z,49.00
2019-02-20T10:44:00.048Z,49.40
2019-02-20T10:46:30.395Z,49.80
2019-02-20T10:49:01.680Z,48.80
2019-02-20T10:51:31.795Z,51.10
2019-02-20T10:54:02.072Z,51.00
2019-02-20T10:56:32.285Z,50.20
2019-02-20T10:59:02.625Z,49.30
2019-02-20T11:01:32.730Z,49.90
2019-02-20T11:04:02.977Z,49.40
2019-02-20T11:06:33.150Z,49.30
2019-02-20T11:09:04.633Z,50.20
2019-02-20T11:11:36.561Z,50.20
2019-02-20T11:14:06.831Z,50.60
2019-02-20T11:16:37.027Z,50.40
2019-02-20T11:19:07.183Z,49.90
2019-02-20T11:21:37.336Z,51.30
2019-02-20T11:24:07.557Z,50.70
2019-02-20T11:26:50.239Z,50.30
2019-02-20T11:29:09.792Z,50.10
2019-02-20T11:31:39.999Z,50.60
2019-02-20T11:34:10.209Z,50.90
2019-02-20T11:36:40.572Z,50.90
2019-02-20T11:39:11.733Z,49.20
2019-02-20T11:41:41.866Z,48.20
2019-02-20T11:44:11.869Z,48.60
2019-02-20T11:46:44.679Z,47.80
2019-02-20T11:49:15.920Z,48.60
2019-02-20T11:51:46.064Z,46.70
2019-02-20T11:54:16.247Z,49.80
2019-02-20T11:56:46.364Z,49.30
2019-02-20T11:59:16.483Z,49.00
2019-02-20T12:01:46.732Z,49.00
2019-02-20T12:04:16.921Z,48.70
2019-02-20T12:06:47.016Z,49.20
2019-02-20T12:09:17.120Z,49.00
2019-02-20T12:11:47.330Z,49.10
2019-02-20T12:14:17.399Z,49.30
2019-02-20T12:16:47.443Z,49.40
2019-02-20T12:19:17.455Z,49.90
2019-02-20T12:21:47.629Z,50.30
2019-02-20T12:24:17.960Z,50.20
2019-02-20T12:26:48.141Z,50.60
2019-02-20T12:29:19.227Z,51.50
2019-02-20T12:31:52.465Z,51.10
2019-02-20T12:34:21.367Z,49.80
2019-02-20T12:36:51.626Z,48.30
2019-02-20T12:39:21.672Z,49.60
2019-02-20T12:41:51.848Z,49.30
2019-02-20T12:44:21.924Z,50.20
2019-02-20T12:46:52.337Z,49.70
2019-02-20T12:49:22.555Z,49.90
2019-02-20T12:51:52.657Z,49.30
2019-02-20T12:54:22.876Z,49.60
2019-02-20T12:56:53.042Z,49.90
2019-02-20T12:59:23.342Z,49.70
2019-02-20T13:01:53.495Z,49.60
2019-02-20T13:04:24.649Z,49.70
2019-02-20T13:06:59.375Z,49.70
2019-02-20T13:09:26.624Z,49.60
2019-02-20T13:11:56.641Z,49.80
2019-02-20T13:14:26.740Z,50.30
2019-02-20T13:16:56.760Z,50.00
2019-02-20T13:19:27.750Z,49.40
2019-02-20T13:21:58.035Z,50.10
2019-02-20T13:24:28.189Z,50.30
2019-02-20T13:26:58.323Z,50.00
2019-02-20T13:29:28.637Z,50.10
2019-02-20T13:31:58.873Z,50.20
2019-02-20T13:34:31.298Z,49.90
2019-02-20T13:37:01.391Z,50.10
2019-02-20T13:39:31.476Z,49.90
2019-02-20T13:42:01.606Z,50.20
2019-02-20T13:44:31.676Z,49.50
2019-02-20T13:47:01.740Z,49.80
2019-02-20T13:49:31.971Z,50.40
2019-02-20T13:52:02.344Z,50.30
2019-02-20T13:54:32.397Z,49.70
2019-02-20T13:57:03.462Z,49.60
2019-02-20T13:59:33.459Z,50.50
2019-02-20T14:02:03.575Z,50.50
2019-02-20T14:04:33.857Z,49.90
2019-02-20T14:07:03.949Z,49.80
2019-02-20T14:09:34.060Z,50.20
2019-02-20T14:12:04.172Z,49.80
2019-02-20T14:14:34.211Z,50.60
2019-02-20T14:17:04.276Z,50.20
2019-02-20T14:19:34.420Z,50.40
2019-02-20T14:22:04.666Z,50.20
2019-02-20T14:24:35.051Z,50.20
2019-02-20T14:27:10.750Z,51.00
2019-02-20T14:29:37.271Z,50.70
2019-02-20T14:32:08.581Z,50.40
2019-02-20T14:34:38.916Z,50.50
2019-02-20T14:37:09.100Z,50.50
2019-02-20T14:39:39.140Z,50.20
2019-02-20T14:42:09.392Z,50.00
2019-02-20T14:44:39.505Z,50.10
2019-02-20T14:47:09.639Z,50.20
2019-02-20T14:49:39.864Z,50.80
2019-02-20T14:52:10.094Z,50.10
2019-02-20T14:54:40.239Z,51.20
2019-02-20T14:57:19.215Z,50.30
2019-02-20T14:59:42.256Z,51.20
2019-02-20T15:02:12.439Z,50.80
2019-02-20T15:04:42.607Z,50.40
2019-02-20T15:07:12.889Z,50.80
2019-02-20T15:09:42.815Z,51.30
2019-02-20T15:12:13.225Z,50.80
2019-02-20T15:14:43.554Z,50.20
2019-02-20T15:17:13.683Z,50.50
2019-02-20T15:19:43.771Z,51.00
2019-02-20T15:22:13.979Z,50.20
2019-02-20T15:24:44.417Z,50.70
2019-02-20T15:27:14.684Z,50.90
2019-02-20T15:29:44.895Z,50.30
2019-02-20T15:32:15.224Z,50.70
2019-02-20T15:34:45.396Z,50.20
2019-02-20T15:37:15.731Z,50.50
2019-02-20T15:39:46.191Z,50.90
2019-02-20T15:42:16.387Z,50.90
2019-02-20T15:44:46.537Z,50.40
2019-02-20T15:47:16.704Z,50.60
2019-02-20T15:49:46.763Z,50.60
2019-02-20T15:52:16.846Z,51.50
2019-02-20T15:54:46.981Z,51.00
2019-02-20T15:57:16.984Z,50.40
2019-02-20T15:59:47.068Z,51.40
2019-02-20T16:02:17.173Z,51.60
2019-02-20T16:04:47.280Z,51.40
2019-02-20T16:07:17.520Z,51.10
2019-02-20T16:09:47.603Z,51.20
2019-02-20T16:12:17.720Z,51.50
2019-02-20T16:14:47.824Z,51.50
2019-02-20T16:17:18.001Z,51.20
2019-02-20T16:19:48.124Z,51.50
2019-02-20T16:22:18.475Z,51.60
2019-02-20T16:24:48.927Z,50.80
2019-02-20T16:27:19.225Z,50.60
2019-02-20T16:29:49.352Z,50.50
2019-02-20T16:32:19.517Z,50.70
2019-02-20T16:34:49.683Z,51.50
2019-02-20T16:37:21.730Z,51.40
2019-02-20T16:39:52.236Z,50.90
2019-02-20T16:42:22.411Z,50.50
2019-02-20T16:44:52.614Z,50.50
2019-02-20T16:47:22.732Z,50.50
2019-02-20T16:49:52.826Z,50.50
2019-02-20T16:52:22.992Z,50.50
2019-02-20T16:54:54.947Z,50.50
2019-02-20T16:57:26.165Z,50.50
2019-02-20T16:59:56.250Z,50.50
2019-02-20T17:02:26.339Z,50.60
2019-02-20T17:04:59.220Z,50.70
2019-02-20T17:07:28.270Z,50.60
2019-02-20T17:09:58.380Z,50.60
2019-02-20T17:12:30.399Z,50.70
2019-02-20T17:15:00.655Z,50.70
2019-02-20T17:17:30.895Z,50.60
2019-02-20T17:20:00.988Z,51.30
2019-02-20T17:22:33.072Z,50.60
2019-02-20T17:25:02.808Z,50.70
2019-02-20T17:27:33.928Z,50.80
2019-02-20T17:30:04.648Z,50.60
2019-02-20T17:32:35.820Z,50.70
2019-02-20T17:35:06.668Z,50.80
2019-02-20T17:37:36.840Z,50.90
2019-02-20T17:40:07.332Z,50.90
2019-02-20T17:42:38.343Z,50.90
2019-02-20T17:45:09.624Z,50.80
2019-02-20T17:47:39.818Z,50.90
2019-02-20T17:50:12.348Z,50.90
2019-02-20T17:52:42.478Z,50.80
2019-02-20T17:55:12.971Z,51.10
2019-02-20T17:57:43.052Z,51.00
2019-02-20T18:00:13.845Z,50.90
2019-02-20T18:02:44.035Z,50.90
2019-02-20T18:05:14.093Z,50.90
2019-02-20T18:07:49.861Z,51.00
2019-02-20T18:10:15.924Z,51.00
2019-02-20T18:12:45.915Z,51.10
2019-02-20T18:15:15.882Z,51.10
2019-02-20T18:17:45.944Z,51.10
2019-02-20T18:20:15.983Z,51.20
2019-02-20T18:22:46.009Z,51.20
2019-02-20T18:25:16.358Z,51.20
2019-02-20T18:27:47.804Z,51.80
2019-02-20T18:30:17.902Z,51.20
2019-02-20T18:32:47.767Z,51.30
2019-02-20T18:35:17.892Z,51.20
2019-02-20T18:37:48.007Z,51.20
2019-02-20T18:40:18.158Z,51.30
2019-02-20T18:42:48.288Z,51.30
2019-02-20T18:45:18.502Z,51.40
2019-02-20T18:47:48.642Z,51.40
2019-02-20T18:50:18.963Z,51.40
2019-02-20T18:52:50.191Z,51.40
2019-02-20T18:55:20.415Z,52.00
2019-02-20T18:57:50.627Z,51.40
2019-02-20T19:00:20.805Z,51.40
2019-02-20T19:02:51.028Z,51.40
2019-02-20T19:05:21.413Z,51.30
2019-02-20T19:07:53.106Z,51.60
2019-02-20T19:10:31.259Z,51.40
2019-02-20T19:13:33.820Z,51.40
2019-02-20T19:16:44.850Z,51.40
2019-02-20T19:19:27.875Z,51.40
2019-02-20T19:23:00.832Z,51.30
2019-02-20T19:26:14.077Z,51.10
2019-02-20T19:29:22.533Z,51.50
2019-02-20T19:32:27.993Z,51.40
2019-02-20T19:35:30.049Z,51.60
2019-02-20T19:38:41.330Z,51.50
2019-02-20T19:41:26.806Z,51.60
2019-02-20T19:44:26.960Z,51.70
2019-02-20T19:47:16.466Z,51.60
2019-02-20T19:50:29.421Z,51.40
2019-02-20T19:53:30.478Z,51.50
2019-02-20T19:56:29.184Z,51.40
2019-02-20T19:59:34.920Z,51.40
2019-02-20T20:02:57.351Z,51.40
2019-02-20T20:06:05.337Z,51.20
2019-02-20T20:09:06.295Z,51.50
2019-02-20T20:12:16.085Z,51.40
2019-02-20T20:15:24.109Z,51.40
2019-02-20T20:19:02.560Z,51.50
2019-02-20T20:22:06.727Z,51.40
2019-02-20T20:24:55.482Z,51.50
2019-02-20T20:27:45.561Z,51.60
2019-02-20T20:31:05.548Z,51.60
2019-02-20T20:34:34.580Z,51.50
2019-02-20T20:37:40.266Z,51.70
2019-02-20T20:40:37.497Z,51.70
2019-02-20T20:43:57.319Z,51.60
2019-02-20T20:46:59.367Z,51.70
2019-02-20T20:49:49.250Z,51.50
2019-02-20T20:52:54.002Z,51.60
2019-02-20T20:55:46.206Z,51.90
2019-02-20T20:58:40.209Z,51.90
2019-02-20T21:01:40.921Z,51.80
2019-02-20T21:04:46.396Z,51.80
2019-02-20T21:07:51.006Z,52.00
2019-02-20T21:11:05.963Z,51.90
2019-02-20T21:14:03.735Z,52.00
2019-02-20T21:17:21.088Z,51.90
2019-02-20T21:20:11.553Z,51.70
2019-02-20T21:23:07.079Z,52.60
2019-02-20T21:26:18.498Z,52.00
2019-02-20T21:29:27.880Z,51.90
2019-02-20T21:32:04.976Z,52.60
2019-02-20T21:35:06.178Z,52.00
2019-02-20T21:38:03.476Z,52.30
2019-02-20T21:41:01.159Z,52.30
2019-02-20T21:44:03.217Z,52.40
2019-02-20T21:47:07.049Z,52.20
2019-02-20T21:50:05.124Z,52.40
2019-02-20T21:52:52.975Z,52.50
2019-02-20T21:56:02.392Z,52.50
2019-02-20T21:58:42.006Z,52.60
2019-02-20T22:01:25.440Z,52.50
2019-02-20T22:04:22.687Z,52.50
2019-02-20T22:07:38.617Z,52.60
2019-02-20T22:10:47.067Z,52.50
2019-02-20T22:13:28.575Z,52.60
2019-02-20T22:16:33.907Z,52.60
2019-02-20T22:20:09.244Z,52.60
2019-02-20T22:22:55.343Z,52.70
2019-02-20T22:25:47.128Z,52.50
2019-02-20T22:28:55.812Z,52.40
2019-02-20T22:31:46.592Z,52.00
2019-02-20T22:34:48.460Z,52.20
2019-02-20T22:38:08.340Z,52.10
2019-02-20T22:41:09.929Z,52.00
2019-02-20T22:44:19.586Z,52.00
2019-02-20T22:47:51.835Z,51.90
2019-02-20T22:51:03.200Z,51.90
2019-02-20T22:53:53.472Z,51.80
2019-02-20T22:56:37.703Z,51.80
2019-02-20T23:00:02.188Z,52.00
2019-02-20T23:03:15.373Z,52.00
2019-02-20T23:06:31.351Z,51.90
2019-02-20T23:09:38.932Z,51.80
2019-02-20T23:12:15.684Z,52.10
2019-02-20T23:14:54.507Z,52.10
2019-02-20T23:17:26.991Z,51.90
2019-02-20T23:19:56.792Z,52.70
2019-02-20T23:22:26.835Z,52.10
2019-02-20T23:24:56.947Z,52.10
2019-02-20T23:27:27.007Z,51.90
2019-02-20T23:29:57.164Z,52.20
2019-02-20T23:32:27.252Z,52.10
2019-02-20T23:34:57.401Z,51.90
2019-02-20T23:37:27.616Z,52.10
2019-02-20T23:39:57.623Z,52.10
2019-02-20T23:42:27.659Z,51.90
2019-02-20T23:44:57.904Z,52.10
2019-02-20T23:47:28.127Z,52.10
2019-02-20T23:49:58.343Z,52.00
2019-02-20T23:52:28.476Z,52.00
2019-02-20T23:54:58.564Z,52.00
2019-02-20T23:57:29.658Z,52.10
2019-02-20T23:59:59.584Z,52.00
